createdAt,value
2022-08-05T00:15:54.871Z,97453.19
2022-08-05T00:36:16.199Z,97429.56
2022-08-05T00:40:54.962Z,97432.59
2022-08-05T00:43:51.642Z,97429.50
2022-08-05T00:46:20.894Z,97426.75
2022-08-05T00:49:10.167Z,97425.94
2022-08-05T00:51:51.853Z,97428.69
2022-08-05T00:54:21.651Z,97419.19
2022-08-05T00:56:57.140Z,97419.56
2022-08-05T00:59:26.290Z,97420.56
2022-08-05T01:02:03.583Z,97417.78
2022-08-05T01:04:33.033Z,97417.50
2022-08-05T01:07:05.101Z,97415.13
2022-08-05T01:09:34.694Z,97419.44
2022-08-05T01:12:18.164Z,97411.72
2022-08-05T01:14:54.809Z,97410.91
2022-08-05T01:17:32.680Z,97412.13
2022-08-05T01:20:23.720Z,97421.38
2022-08-05T01:23:15.264Z,97422.81
2022-08-05T01:26:07.288Z,97416.22
2022-08-05T01:28:47.092Z,97414.28
2022-08-05T01:31:24.516Z,97416.28
2022-08-05T01:34:02.220Z,97415.47
2022-08-05T01:36:36.897Z,97411.75
2022-08-05T01:39:13.243Z,97409.41
2022-08-05T01:41:44.591Z,97408.91
2022-08-05T01:44:16.655Z,97415.03
2022-08-05T01:46:47.255Z,97418.06
2022-08-05T01:49:24.953Z,97410.81
2022-08-05T01:52:01.001Z,97409.09
2022-08-05T01:54:46.201Z,97402.28
2022-08-05T01:58:12.459Z,97398.91
2022-08-05T02:00:14.976Z,97404.84
2022-08-05T02:02:55.148Z,97402.28
2022-08-05T02:05:34.033Z,97399.13
2022-08-05T02:08:04.063Z,97394.56
2022-08-05T02:10:40.848Z,97393.88
2022-08-05T02:13:16.954Z,97387.75
2022-08-05T02:15:55.824Z,97387.53
2022-08-05T02:18:35.208Z,97390.84
2022-08-05T02:21:15.528Z,97393.81
2022-08-05T02:23:48.492Z,97395.38
2022-08-05T02:26:27.429Z,97389.53
2022-08-05T02:29:01.279Z,97391.72
2022-08-05T02:31:36.535Z,97392.69
2022-08-05T02:34:11.951Z,97376.91
2022-08-05T02:36:46.566Z,97385.13
2022-08-05T02:39:23.189Z,97381.13
2022-08-05T02:42:00.651Z,97374.56
2022-08-05T02:44:33.920Z,97378.34
2022-08-05T02:47:07.301Z,97376.09
2022-08-05T02:49:40.635Z,97368.00
2022-08-05T02:52:29.608Z,97373.63
2022-08-05T02:55:05.442Z,97370.97
2022-08-05T02:58:10.669Z,97370.13
2022-08-05T03:00:31.479Z,97374.47
2022-08-05T03:03:10.326Z,97375.09
2022-08-05T03:06:55.888Z,97378.88
2022-08-05T03:08:31.118Z,97375.53
2022-08-05T03:11:53.385Z,97380.19
2022-08-05T03:13:51.683Z,97372.41
2022-08-05T03:16:32.051Z,97376.19
2022-08-05T03:19:06.509Z,97375.16
2022-08-05T03:21:50.095Z,97366.72
2022-08-05T03:24:29.688Z,97368.94
2022-08-05T03:27:00.188Z,97367.59
2022-08-05T03:29:44.882Z,97366.91
2022-08-05T03:32:19.786Z,97359.13
2022-08-05T03:34:51.628Z,97360.59
2022-08-05T03:37:22.574Z,97360.81
2022-08-05T03:40:01.101Z,97365.22
2022-08-05T03:42:32.239Z,97362.38
2022-08-05T03:45:11.796Z,97367.31
2022-08-05T03:47:50.639Z,97366.31
2022-08-05T03:50:21.675Z,97359.34
2022-08-05T03:55:49.906Z,97371.13
2022-08-05T03:56:10.299Z,97370.16
2022-08-05T03:58:44.767Z,97370.56
2022-08-05T04:01:16.689Z,97368.66
2022-08-05T04:04:05.452Z,97363.88
2022-08-05T04:06:42.794Z,97361.53
2022-08-05T04:09:25.962Z,97365.06
2022-08-05T04:11:57.314Z,97362.69
2022-08-05T04:14:29.407Z,97364.50
2022-08-05T04:17:03.269Z,97371.50
2022-08-05T04:19:45.082Z,97370.56
2022-08-05T04:22:21.381Z,97374.41
2022-08-05T04:24:52.632Z,97365.28
2022-08-05T04:27:41.801Z,97366.00
2022-08-05T04:30:13.155Z,97373.59
2022-08-05T04:32:42.946Z,97370.28
2022-08-05T04:35:19.623Z,97369.06
2022-08-05T04:38:01.312Z,97361.06
2022-08-05T04:40:36.465Z,97362.56
2022-08-05T04:43:06.864Z,97359.13
2022-08-05T04:45:49.073Z,97360.59
2022-08-05T04:48:28.382Z,97361.63
2022-08-05T04:51:03.195Z,97361.72
2022-08-05T04:53:41.227Z,97363.22
2022-08-05T04:56:33.468Z,97358.47
2022-08-05T04:59:00.630Z,97361.09
2022-08-05T05:02:08.232Z,97361.03
2022-08-05T05:04:47.717Z,97364.81
2022-08-05T05:07:29.556Z,97366.13
2022-08-05T05:10:05.486Z,97363.72
2022-08-05T05:12:36.701Z,97361.94
2022-08-05T05:15:10.763Z,97362.47
2022-08-05T05:17:56.180Z,97370.47
2022-08-05T05:20:28.451Z,97369.06
2022-08-05T05:22:58.228Z,97365.41
2022-08-05T05:25:32.843Z,97360.94
2022-08-05T05:28:09.991Z,97366.03
2022-08-05T05:30:39.890Z,97360.81
2022-08-05T05:33:17.033Z,97355.81
2022-08-05T05:35:48.287Z,97361.75
2022-08-05T05:38:22.698Z,97370.22
2022-08-05T05:40:58.432Z,97360.94
2022-08-05T05:43:58.272Z,97363.63
2022-08-05T05:46:18.210Z,97368.50
2022-08-05T05:48:49.122Z,97358.50
2022-08-05T05:51:23.631Z,97361.97
2022-08-05T05:53:58.955Z,97359.56
2022-08-05T05:56:34.789Z,97361.16
2022-08-05T05:59:07.435Z,97356.06
2022-08-05T06:01:39.794Z,97355.31
2022-08-05T06:04:11.986Z,97359.63
2022-08-05T06:06:43.009Z,97356.09
2022-08-05T06:09:17.593Z,97350.19
2022-08-05T06:11:59.986Z,97357.91
2022-08-05T06:14:32.276Z,97357.81
2022-08-05T06:17:22.372Z,97356.53
2022-08-05T06:19:57.103Z,97360.50
2022-08-05T06:22:33.582Z,97352.81
2022-08-05T06:25:59.142Z,97350.88
2022-08-05T06:28:12.174Z,97347.63
2022-08-05T06:30:44.240Z,97349.16
2022-08-05T06:33:13.102Z,97352.94
2022-08-05T06:36:07.370Z,97350.53
2022-08-05T06:38:39.232Z,97350.56
2022-08-05T06:41:16.563Z,97350.38
2022-08-05T06:43:57.999Z,97353.19
2022-08-05T06:46:30.525Z,97343.16
2022-08-05T06:49:01.246Z,97348.75
2022-08-05T06:51:31.833Z,97348.53
2022-08-05T06:54:02.632Z,97350.56
2022-08-05T06:56:34.901Z,97348.88
2022-08-05T06:59:08.498Z,97344.94
2022-08-05T07:01:40.726Z,97357.06
2022-08-05T07:04:14.003Z,97349.28
2022-08-05T07:06:43.797Z,97352.81
2022-08-05T07:09:12.697Z,97350.38
2022-08-05T07:11:49.462Z,97344.16
2022-08-05T07:14:39.375Z,97342.94
2022-08-05T07:17:58.596Z,97344.25
2022-08-05T07:20:32.451Z,97352.06
2022-08-05T07:22:47.781Z,97340.00
2022-08-05T07:25:54.472Z,97343.53
2022-08-05T07:28:11.448Z,97341.28
2022-08-05T07:30:43.162Z,97340.81
2022-08-05T07:33:16.672Z,97345.09
2022-08-05T07:36:03.641Z,97336.06
2022-08-05T07:38:43.340Z,97338.31
2022-08-05T07:42:13.615Z,97343.91
2022-08-05T07:44:14.223Z,97338.88
2022-08-05T07:46:50.434Z,97339.63
2022-08-05T07:49:20.701Z,97334.34
2022-08-05T07:51:53.611Z,97333.03
2022-08-05T07:54:31.082Z,97326.75
2022-08-05T07:57:17.982Z,97339.75
2022-08-05T07:59:50.086Z,97332.28
2022-08-05T08:02:30.753Z,97325.94
2022-08-05T08:05:17.456Z,97338.50
2022-08-05T08:07:59.838Z,97329.72
2022-08-05T08:10:30.071Z,97336.22
2022-08-05T08:12:59.737Z,97334.13
2022-08-05T08:16:34.308Z,97340.16
2022-08-05T08:18:21.874Z,97337.28
2022-08-05T08:21:02.713Z,97335.22
2022-08-05T08:24:02.399Z,97336.53
2022-08-05T08:26:26.733Z,97331.38
2022-08-05T08:29:22.285Z,97334.41
2022-08-05T08:32:21.496Z,97330.28
2022-08-05T08:35:07.181Z,97334.06
2022-08-05T08:37:45.160Z,97327.41
2022-08-05T08:40:16.785Z,97325.28
2022-08-05T08:42:58.025Z,97328.75
2022-08-05T08:46:15.595Z,97322.28
2022-08-05T08:49:07.703Z,97321.03
2022-08-05T08:52:03.940Z,97316.50
2022-08-05T08:54:55.738Z,97316.38
2022-08-05T08:57:42.088Z,97310.50
2022-08-05T09:00:21.316Z,97316.97
2022-08-05T09:02:52.478Z,97316.19
2022-08-05T09:05:38.586Z,97310.84
2022-08-05T09:08:30.221Z,97314.44
2022-08-05T09:10:59.811Z,97313.63
2022-08-05T09:13:31.470Z,97311.06
2022-08-05T09:16:43.129Z,97310.22
2022-08-05T09:23:09.330Z,97309.94
2022-08-05T09:26:01.668Z,97299.94
2022-08-05T09:28:33.400Z,97300.38
2022-08-05T09:31:22.230Z,97301.94
2022-08-05T09:34:01.599Z,97301.25
2022-08-05T09:36:59.696Z,97309.25
2022-08-05T09:39:45.233Z,97305.19
2022-08-05T09:42:23.271Z,97296.06
2022-08-05T09:45:17.468Z,97283.72
2022-08-05T09:48:21.877Z,97289.66
2022-08-05T09:51:00.005Z,97292.19
2022-08-05T09:53:53.633Z,97289.09
2022-08-05T09:56:27.803Z,97291.22
2022-08-05T09:59:04.244Z,97283.19
2022-08-05T10:01:36.467Z,97282.66
2022-08-05T10:04:12.791Z,97293.28
2022-08-05T10:06:49.800Z,97282.03
2022-08-05T10:09:29.279Z,97285.03
2022-08-05T10:12:18.609Z,97278.31
2022-08-05T10:15:21.928Z,97276.03
2022-08-05T10:18:16.703Z,97273.41
2022-08-05T10:20:49.623Z,97270.19
2022-08-05T10:23:34.321Z,97271.06
2022-08-05T10:26:14.599Z,97266.44
2022-08-05T10:28:46.575Z,97263.03
2022-08-05T10:32:52.274Z,97266.78
2022-08-05T10:34:08.566Z,97264.13
2022-08-05T10:36:39.120Z,97260.91
2022-08-05T10:39:24.024Z,97254.38
2022-08-05T10:42:01.400Z,97259.00
2022-08-05T10:44:32.902Z,97253.16
2022-08-05T10:47:26.517Z,97251.38
2022-08-05T10:50:32.088Z,97250.41
2022-08-05T10:53:00.238Z,97249.41
2022-08-05T10:55:32.938Z,97247.13
2022-08-05T10:58:20.781Z,97251.63
2022-08-05T11:00:55.047Z,97256.50
2022-08-05T11:03:27.105Z,97253.72
2022-08-05T11:06:15.266Z,97248.22
2022-08-05T11:09:45.589Z,97241.97
2022-08-05T11:12:50.303Z,97251.16
2022-08-05T11:15:24.157Z,97251.69
2022-08-05T11:18:32.660Z,97239.19
2022-08-05T11:21:48.749Z,97240.75
2022-08-05T11:24:30.215Z,97249.00
2022-08-05T11:27:45.866Z,97234.06
2022-08-05T11:30:20.834Z,97233.81
2022-08-05T11:33:34.632Z,97244.72
2022-08-05T11:36:34.550Z,97239.19
2022-08-05T11:39:08.498Z,97236.56
2022-08-05T11:42:01.601Z,97243.72
2022-08-05T11:44:52.801Z,97241.06
2022-08-05T11:47:48.440Z,97245.38
2022-08-05T11:50:16.770Z,97238.63
2022-08-05T11:52:49.583Z,97237.31
2022-08-05T11:55:19.430Z,97241.00
2022-08-05T11:58:08.515Z,97231.16
2022-08-05T12:00:39.046Z,97232.84
2022-08-05T12:03:28.570Z,97239.97
2022-08-05T12:06:10.169Z,97227.69
2022-08-05T12:08:50.918Z,97233.56
2022-08-05T12:12:04.615Z,97225.75
2022-08-05T12:15:16.639Z,97219.59
2022-08-05T12:18:04.425Z,97220.72
2022-08-05T12:20:38.626Z,97224.25
2022-08-05T12:23:13.643Z,97212.38
2022-08-05T12:26:00.428Z,97211.97
2022-08-05T12:28:37.681Z,97210.81
2022-08-05T12:31:07.638Z,97218.34
2022-08-05T12:33:38.795Z,97215.28
2022-08-05T12:36:09.760Z,97210.06
2022-08-05T12:38:49.660Z,97197.03
2022-08-05T12:41:19.637Z,97198.53
2022-08-05T12:43:55.432Z,97197.22
2022-08-05T12:46:28.831Z,97196.88
2022-08-05T12:49:05.750Z,97200.50
2022-08-05T12:52:12.686Z,97192.53
2022-08-05T12:54:37.808Z,97196.97
2022-08-05T12:57:09.732Z,97183.53
2022-08-05T13:01:56.738Z,97178.53
2022-08-05T13:02:39.885Z,97182.72
2022-08-05T13:05:11.140Z,97175.56
2022-08-05T13:07:59.208Z,97173.63
2022-08-05T13:10:34.030Z,97172.88
2022-08-05T13:13:08.937Z,97173.13
2022-08-05T13:15:50.965Z,97167.09
2022-08-05T13:18:20.632Z,97167.78
2022-08-05T13:20:50.457Z,97166.03
2022-08-05T13:23:22.892Z,97163.13
2022-08-05T13:25:59.696Z,97155.94
2022-08-05T13:28:32.142Z,97157.13
2022-08-05T13:31:13.916Z,97146.91
2022-08-05T13:34:21.829Z,97147.91
2022-08-05T13:36:33.677Z,97145.19
2022-08-05T13:39:24.110Z,97133.00
2022-08-05T13:41:53.966Z,97137.38
2022-08-05T13:44:24.938Z,97131.94
2022-08-05T13:47:02.588Z,97120.28
2022-08-05T13:49:37.966Z,97117.72
2022-08-05T13:52:17.138Z,97114.44
2022-08-05T13:54:53.432Z,97110.97
2022-08-05T13:57:24.574Z,97111.47
2022-08-05T13:59:59.408Z,97110.47
2022-08-05T14:02:31.347Z,97110.00
2022-08-05T14:05:29.541Z,97112.19
2022-08-05T14:08:19.807Z,97112.69
2022-08-05T14:10:50.976Z,97122.66
2022-08-05T14:13:23.471Z,97120.94
2022-08-05T14:16:07.195Z,97124.25
2022-08-05T14:18:38.588Z,97121.81
2022-08-05T14:22:07.735Z,97132.84
2022-08-05T14:23:57.187Z,97120.84
2022-08-05T14:26:38.313Z,97120.28
2022-08-05T14:29:16.172Z,97127.47
2022-08-05T14:32:02.558Z,97118.31
2022-08-05T14:34:36.134Z,97115.19
2022-08-05T14:37:06.395Z,97122.91
2022-08-05T14:39:51.193Z,97120.59
2022-08-05T14:42:25.146Z,97117.13
2022-08-05T14:44:56.715Z,97123.34
2022-08-05T14:48:05.119Z,97112.31
2022-08-05T14:50:19.076Z,97120.00
2022-08-05T14:52:56.800Z,97129.69
2022-08-05T14:55:38.400Z,97128.88
2022-08-05T14:58:11.738Z,97132.19
2022-08-05T15:04:47.704Z,97143.44
2022-08-05T15:08:11.225Z,97139.44
2022-08-05T15:10:09.870Z,97129.22
2022-08-05T15:13:00.370Z,97142.09
2022-08-05T15:15:54.910Z,97143.22
2022-08-05T15:18:20.103Z,97149.69
2022-08-05T15:20:49.355Z,97154.97
2022-08-05T15:23:19.015Z,97149.81
2022-08-05T15:25:52.581Z,97149.94
2022-08-05T15:28:27.567Z,97150.41
2022-08-05T15:30:57.552Z,97152.31
2022-08-05T15:34:04.258Z,97155.75
2022-08-05T15:36:24.267Z,97158.97
2022-08-05T15:40:41.020Z,97163.84
2022-08-05T15:41:57.702Z,97162.03
2022-08-05T15:44:30.195Z,97163.06
2022-08-05T15:47:25.423Z,97160.69
2022-08-05T15:54:58.521Z,97159.81
2022-08-05T15:58:04.812Z,97160.03
2022-08-05T16:00:50.877Z,97163.03
2022-08-05T16:03:27.017Z,97156.53
2022-08-05T16:05:57.470Z,97151.69
2022-08-05T16:08:30.608Z,97150.56
2022-08-05T16:11:00.376Z,97152.63
2022-08-05T16:13:34.109Z,97153.75
2022-08-05T16:16:03.927Z,97162.00
2022-08-05T16:18:33.980Z,97157.31
2022-08-05T16:21:05.067Z,97159.94
2022-08-05T16:23:54.625Z,97164.59
2022-08-05T16:32:29.519Z,97161.56
2022-08-05T17:04:33.023Z,97184.56
2022-08-05T17:07:03.561Z,97181.97
2022-08-05T17:09:58.506Z,97185.25
2022-08-05T17:12:51.012Z,97178.38
2022-08-05T17:15:19.498Z,97187.47
2022-08-05T17:17:55.141Z,97186.53
2022-08-05T17:20:26.597Z,97186.63
2022-08-05T17:22:57.641Z,97187.88
2022-08-05T17:25:40.185Z,97189.88
2022-08-05T17:28:10.436Z,97188.34
2022-08-05T17:30:50.724Z,97194.22
2022-08-05T17:33:21.684Z,97196.41
2022-08-05T17:36:08.888Z,97208.34
2022-08-05T17:38:39.862Z,97207.03
2022-08-05T17:41:22.682Z,97208.41
2022-08-05T17:43:58.729Z,97205.97
2022-08-05T17:46:28.016Z,97209.31
2022-08-05T17:48:58.017Z,97214.06
2022-08-05T17:51:28.891Z,97213.19
2022-08-05T17:54:09.873Z,97213.50
2022-08-05T17:56:39.415Z,97211.56
2022-08-05T17:59:08.644Z,97211.91
2022-08-05T18:01:49.207Z,97213.00
2022-08-05T18:04:21.464Z,97208.84
2022-08-05T18:07:00.472Z,97206.16
2022-08-05T18:09:59.092Z,97205.31
2022-08-05T18:12:23.976Z,97211.03
2022-08-05T18:14:53.378Z,97199.25
2022-08-05T18:18:01.597Z,97200.66
2022-08-05T18:20:14.960Z,97200.22
2022-08-05T18:22:54.300Z,97194.22
2022-08-05T18:25:24.043Z,97189.69
2022-08-05T18:27:54.530Z,97194.09
2022-08-05T18:30:23.535Z,97180.59
2022-08-05T18:33:00.860Z,97180.50
2022-08-05T18:36:01.054Z,97178.69
2022-08-05T18:38:25.940Z,97174.94
2022-08-05T18:41:56.683Z,97176.34
2022-08-05T18:43:48.965Z,97171.72
2022-08-05T18:46:20.053Z,97176.88
2022-08-05T18:48:52.026Z,97180.31
2022-08-05T18:52:05.826Z,97175.59
2022-08-05T18:54:31.522Z,97178.03
2022-08-05T18:57:01.614Z,97174.28
2022-08-05T18:59:42.907Z,97173.63
2022-08-05T19:02:27.545Z,97187.34
2022-08-05T19:05:02.354Z,97194.13
2022-08-05T19:07:50.194Z,97202.88
2022-08-05T19:10:28.508Z,97214.00
2022-08-05T19:12:58.023Z,97222.50
2022-08-05T19:15:56.924Z,97220.09
2022-08-05T19:18:21.900Z,97229.19
2022-08-05T19:20:52.853Z,97235.31
2022-08-05T19:24:05.142Z,97243.00
2022-08-05T19:26:14.784Z,97245.78
2022-08-05T19:28:45.436Z,97245.94
2022-08-05T19:31:19.511Z,97258.06
2022-08-05T19:33:56.439Z,97268.06
2022-08-05T19:36:29.363Z,97269.19
2022-08-05T19:39:05.350Z,97273.97
2022-08-05T19:42:06.134Z,97282.28
2022-08-05T19:44:24.660Z,97284.50
2022-08-05T19:46:58.287Z,97283.78
2022-08-05T19:49:27.497Z,97283.78
2022-08-05T19:52:13.208Z,97287.72
2022-08-05T19:56:15.569Z,97287.34
2022-08-05T19:58:29.319Z,97291.19
2022-08-05T20:01:01.946Z,97289.78
2022-08-05T20:03:40.804Z,97290.97
2022-08-05T20:06:28.626Z,97298.69
2022-08-05T20:09:06.165Z,97294.75
2022-08-05T20:11:48.079Z,97285.34
2022-08-05T20:14:27.170Z,97292.06
2022-08-05T20:16:59.413Z,97291.13
2022-08-05T20:19:41.359Z,97294.28
2022-08-05T20:22:10.775Z,97287.97
2022-08-05T20:24:41.118Z,97287.78
2022-08-05T20:27:11.708Z,97289.91
2022-08-05T20:29:42.273Z,97287.63
2022-08-05T20:32:28.179Z,97291.50
2022-08-05T20:34:57.603Z,97292.84
2022-08-05T20:38:06.331Z,97285.56
2022-08-05T20:40:19.430Z,97296.69
2022-08-05T20:42:49.613Z,97290.44
2022-08-05T20:45:21.026Z,97289.28
2022-08-05T20:47:50.124Z,97293.88
2022-08-05T20:50:21.386Z,97290.41
2022-08-05T20:52:51.561Z,97290.97
2022-08-05T21:39:34.702Z,97296.16
2022-08-05T21:44:01.379Z,97298.41
2022-08-05T21:52:22.525Z,97305.31
2022-08-05T21:59:48.151Z,97311.72
2022-08-05T22:03:04.720Z,97314.78
2022-08-05T22:09:45.551Z,97317.84
2022-08-05T22:20:39.833Z,97323.66
2022-08-05T22:28:08.640Z,97313.38
2022-08-05T22:34:43.071Z,97302.31
2022-08-05T22:38:15.867Z,97307.31
2022-08-05T22:40:49.306Z,97311.88
2022-08-05T22:43:41.511Z,97314.91
2022-08-05T23:01:04.654Z,97314.94
2022-08-05T23:08:26.630Z,97314.94
2022-08-05T23:11:34.987Z,97320.00
2022-08-05T23:14:10.945Z,97311.91
2022-08-05T23:18:01.133Z,97312.66
2022-08-05T23:21:48.472Z,97312.19
2022-08-05T23:24:24.510Z,97314.69
2022-08-05T23:27:17.466Z,97319.72
2022-08-05T23:39:54.298Z,97322.00
2022-08-05T23:42:31.373Z,97324.00
2022-08-05T23:45:03.698Z,97321.97
2022-08-05T23:47:47.681Z,97331.78
2022-08-05T23:50:20.617Z,97322.94
2022-08-05T23:52:51.696Z,97320.94
2022-08-05T23:55:31.190Z,97324.72
2022-08-05T23:58:03.421Z,97321.19
